TFFR/PTP METAR and TAF weather

Enter ICAO airport designator
Station Type Date Time Source
TFFR METAR 2022/06/30 00:30 UTC NOAA

TFFR 300030Z AUTO 09010KT 9999 BKN027/// BKN034/// BKN044/// ///TCU 27/24 Q1017


Station Type Date Time Source
TFFR Decoded METAR 2022/06/30 00:30 UTC NOAA

Le Raizet, Guadeloupe, Guadeloupe (TFFR) 16-16N 061-31W 11M
Jun 29, 2022 - 08:30 PM EDT / 2022.06.30 0030 UTC
Wind: from the E (090 degrees) at 12 MPH (10 KT):0
Visibility: greater than 7 mile(s):0
Sky conditions: mostly cloudy
Weather: Towering cumulus clouds observed
Temperature: 80 F (27 C)
Dew Point: 75 F (24 C)
Relative Humidity: 83%
Pressure (altimeter): 30.03 in. Hg (1017 hPa)
ob: TFFR 300030Z AUTO 09010KT 9999 BKN027/// BKN034/// BKN044/// ///TCU 27/24 Q1017
cycle: 0

Station Type Date Time Source
TFFR TAF 2022/06/29 10:03 UTC NOAA

TAF TFFR 291058Z 2910/3006 CNL

Example: see airport list